ESFY weather

CLOSED Byholma Air Base
Byholma, Kronoberge län, Sweden

Public forecast

Using degrees Celsius for public forecast. Weather courtesy of forecast.io.

METAR (pilot weather report)

Closest report is Halmstad Airport, 26.3 nm (48.7 km) WSW. Retrieved 2019/07/19 15:20 UTC (10 minutes ago):

ESMT 191520Z 23014KT CAVOK 22/12 Q1012

TAF (pilot weather forecast)

Forecast is more than 12 hours old.

Closest forecast is Halmstad Airport, 26.3 nm (48.7 km) WSW. Retrieved 2017/04/24 06:33 UTC (2 years ago):

TAF ESMT 240513Z 2406/2506 22018KT 9999 BKN018 TEMPO 2406/2413 22018G30KT 4000 RADZ BKN008 TEMPO 2413/2415 24020G30KT 4000 SHRA BKN014 SCT020CB